sensor_id;sensor_type;location;lat;lon;timestamp;P1;durP1;ratioP1;P2;durP2;ratioP2
18013;SDS011;9132;47.946;10.394;2022-11-15T00:01:33;3.00;;;2.70;;
18013;SDS011;9132;47.946;10.394;2022-11-15T00:04:02;2.90;;;2.60;;
18013;SDS011;9132;47.946;10.394;2022-11-15T00:06:29;2.70;;;2.50;;
18013;SDS011;9132;47.946;10.394;2022-11-15T00:08:57;3.60;;;2.53;;
18013;SDS011;9132;47.946;10.394;2022-11-15T00:11:23;4.13;;;2.80;;
18013;SDS011;9132;47.946;10.394;2022-11-15T00:13:50;3.07;;;2.50;;
18013;SDS011;9132;47.946;10.394;2022-11-15T00:16:16;3.37;;;2.57;;
18013;SDS011;9132;47.946;10.394;2022-11-15T00:18:43;3.00;;;2.63;;
18013;SDS011;9132;47.946;10.394;2022-11-15T00:21:10;3.07;;;2.20;;
18013;SDS011;9132;47.946;10.394;2022-11-15T00:23:38;4.00;;;2.20;;
18013;SDS011;9132;47.946;10.394;2022-11-15T00:26:04;3.53;;;2.70;;
18013;SDS011;9132;47.946;10.394;2022-11-15T00:28:31;2.50;;;2.30;;
18013;SDS011;9132;47.946;10.394;2022-11-15T00:31:01;2.87;;;2.33;;
18013;SDS011;9132;47.946;10.394;2022-11-15T00:33:28;5.40;;;2.50;;
18013;SDS011;9132;47.946;10.394;2022-11-15T00:35:58;3.20;;;2.50;;
18013;SDS011;9132;47.946;10.394;2022-11-15T00:38:25;2.50;;;2.30;;
18013;SDS011;9132;47.946;10.394;2022-11-15T00:40:53;3.03;;;2.30;;
18013;SDS011;9132;47.946;10.394;2022-11-15T00:43:19;3.90;;;2.40;;
18013;SDS011;9132;47.946;10.394;2022-11-15T00:45:46;2.80;;;2.23;;
18013;SDS011;9132;47.946;10.394;2022-11-15T00:48:12;3.30;;;2.30;;
18013;SDS011;9132;47.946;10.394;2022-11-15T00:50:38;3.07;;;2.50;;
18013;SDS011;9132;47.946;10.394;2022-11-15T00:53:05;2.97;;;2.00;;
18013;SDS011;9132;47.946;10.394;2022-11-15T00:55:31;3.00;;;2.50;;
18013;SDS011;9132;47.946;10.394;2022-11-15T00:57:59;2.60;;;2.30;;
18013;SDS011;9132;47.946;10.394;2022-11-15T01:00:26;2.53;;;2.33;;
18013;SDS011;9132;47.946;10.394;2022-11-15T01:02:52;3.00;;;2.40;;
18013;SDS011;9132;47.946;10.394;2022-11-15T01:05:19;2.87;;;2.37;;
18013;SDS011;9132;47.946;10.394;2022-11-15T01:07:45;2.40;;;2.20;;
18013;SDS011;9132;47.946;10.394;2022-11-15T01:10:11;2.77;;;2.23;;
18013;SDS011;9132;47.946;10.394;2022-11-15T01:12:38;2.40;;;2.20;;
18013;SDS011;9132;47.946;10.394;2022-11-15T01:15:06;3.40;;;2.20;;
18013;SDS011;9132;47.946;10.394;2022-11-15T01:17:32;2.77;;;2.33;;
18013;SDS011;9132;47.946;10.394;2022-11-15T01:19:59;2.67;;;2.43;;
18013;SDS011;9132;47.946;10.394;2022-11-15T01:22:25;2.50;;;2.10;;
18013;SDS011;9132;47.946;10.394;2022-11-15T01:24:51;3.27;;;2.20;;
18013;SDS011;9132;47.946;10.394;2022-11-15T01:27:18;4.10;;;2.33;;
18013;SDS011;9132;47.946;10.394;2022-11-15T01:29:44;2.63;;;2.43;;
18013;SDS011;9132;47.946;10.394;2022-11-15T01:32:12;2.47;;;2.27;;
18013;SDS011;9132;47.946;10.394;2022-11-15T01:34:39;3.70;;;2.60;;
18013;SDS011;9132;47.946;10.394;2022-11-15T01:37:05;2.33;;;2.13;;
18013;SDS011;9132;47.946;10.394;2022-11-15T01:39:31;2.50;;;2.10;;
18013;SDS011;9132;47.946;10.394;2022-11-15T01:41:58;4.07;;;2.33;;
18013;SDS011;9132;47.946;10.394;2022-11-15T01:47:20;2.47;;;2.27;;
18013;SDS011;9132;47.946;10.394;2022-11-15T01:49:52;2.40;;;2.20;;
18013;SDS011;9132;47.946;10.394;2022-11-15T01:52:20;4.23;;;2.20;;
18013;SDS011;9132;47.946;10.394;2022-11-15T01:54:47;3.37;;;2.40;;
18013;SDS011;9132;47.946;10.394;2022-11-15T01:57:15;3.83;;;2.60;;
18013;SDS011;9132;47.946;10.394;2022-11-15T01:59:42;3.07;;;2.17;;
18013;SDS011;9132;47.946;10.394;2022-11-15T02:02:09;2.53;;;2.33;;
18013;SDS011;9132;47.946;10.394;2022-11-15T02:04:37;2.90;;;2.50;;
18013;SDS011;9132;47.946;10.394;2022-11-15T02:07:05;3.10;;;2.40;;
18013;SDS011;9132;47.946;10.394;2022-11-15T02:09:35;2.90;;;2.37;;
18013;SDS011;9132;47.946;10.394;2022-11-15T02:12:01;3.43;;;2.60;;
18013;SDS011;9132;47.946;10.394;2022-11-15T02:14:28;3.07;;;2.10;;
18013;SDS011;9132;47.946;10.394;2022-11-15T02:16:58;3.23;;;2.20;;
18013;SDS011;9132;47.946;10.394;2022-11-15T02:22:10;2.87;;;2.20;;
18013;SDS011;9132;47.946;10.394;2022-11-15T02:30:24;2.80;;;2.03;;
18013;SDS011;9132;47.946;10.394;2022-11-15T02:32:52;3.20;;;2.20;;
18013;SDS011;9132;47.946;10.394;2022-11-15T02:35:22;2.50;;;1.90;;
18013;SDS011;9132;47.946;10.394;2022-11-15T02:37:52;2.03;;;1.83;;
18013;SDS011;9132;47.946;10.394;2022-11-15T02:40:23;3.00;;;1.80;;
18013;SDS011;9132;47.946;10.394;2022-11-15T02:42:52;2.77;;;2.50;;
18013;SDS011;9132;47.946;10.394;2022-11-15T02:45:40;2.50;;;2.07;;
18013;SDS011;9132;47.946;10.394;2022-11-15T02:48:08;2.20;;;2.00;;
18013;SDS011;9132;47.946;10.394;2022-11-15T02:50:35;2.57;;;2.37;;
18013;SDS011;9132;47.946;10.394;2022-11-15T02:53:01;2.17;;;1.97;;
18013;SDS011;9132;47.946;10.394;2022-11-15T02:55:28;2.27;;;2.07;;
18013;SDS011;9132;47.946;10.394;2022-11-15T02:58:01;2.57;;;2.20;;
18013;SDS011;9132;47.946;10.394;2022-11-15T03:00:32;2.47;;;2.13;;
18013;SDS011;9132;47.946;10.394;2022-11-15T03:03:08;3.10;;;2.23;;
18013;SDS011;9132;47.946;10.394;2022-11-15T03:05:42;2.33;;;1.90;;
18013;SDS011;9132;47.946;10.394;2022-11-15T03:08:10;2.87;;;2.50;;
18013;SDS011;9132;47.946;10.394;2022-11-15T03:10:42;3.13;;;1.97;;
18013;SDS011;9132;47.946;10.394;2022-11-15T03:13:15;2.23;;;2.03;;
18013;SDS011;9132;47.946;10.394;2022-11-15T03:15:45;2.87;;;1.93;;
18013;SDS011;9132;47.946;10.394;2022-11-15T03:18:18;2.33;;;1.90;;
18013;SDS011;9132;47.946;10.394;2022-11-15T03:20:46;2.30;;;2.10;;
18013;SDS011;9132;47.946;10.394;2022-11-15T03:23:12;3.97;;;2.00;;
18013;SDS011;9132;47.946;10.394;2022-11-15T03:25:40;2.60;;;2.07;;
18013;SDS011;9132;47.946;10.394;2022-11-15T03:28:08;1.93;;;1.80;;
18013;SDS011;9132;47.946;10.394;2022-11-15T03:30:35;2.70;;;1.97;;
18013;SDS011;9132;47.946;10.394;2022-11-15T03:33:03;2.70;;;1.90;;
18013;SDS011;9132;47.946;10.394;2022-11-15T03:35:32;2.53;;;1.80;;
18013;SDS011;9132;47.946;10.394;2022-11-15T03:38:00;2.87;;;1.80;;
18013;SDS011;9132;47.946;10.394;2022-11-15T03:40:33;2.60;;;2.07;;
18013;SDS011;9132;47.946;10.394;2022-11-15T03:43:04;2.13;;;1.70;;
18013;SDS011;9132;47.946;10.394;2022-11-15T03:45:32;2.60;;;1.80;;
18013;SDS011;9132;47.946;10.394;2022-11-15T03:48:01;2.13;;;1.93;;
18013;SDS011;9132;47.946;10.394;2022-11-15T03:50:28;2.07;;;1.70;;
18013;SDS011;9132;47.946;10.394;2022-11-15T03:52:56;2.60;;;2.00;;
18013;SDS011;9132;47.946;10.394;2022-11-15T03:55:23;2.00;;;1.77;;
18013;SDS011;9132;47.946;10.394;2022-11-15T03:57:51;1.97;;;1.77;;
18013;SDS011;9132;47.946;10.394;2022-11-15T04:00:17;2.07;;;1.70;;
18013;SDS011;9132;47.946;10.394;2022-11-15T04:02:44;1.93;;;1.70;;
18013;SDS011;9132;47.946;10.394;2022-11-15T04:05:10;2.33;;;1.83;;
18013;SDS011;9132;47.946;10.394;2022-11-15T04:07:37;2.10;;;1.90;;
18013;SDS011;9132;47.946;10.394;2022-11-15T04:10:05;2.00;;;1.90;;
18013;SDS011;9132;47.946;10.394;2022-11-15T04:12:32;2.33;;;1.90;;
18013;SDS011;9132;47.946;10.394;2022-11-15T04:14:59;1.90;;;1.70;;
18013;SDS011;9132;47.946;10.394;2022-11-15T04:17:36;2.30;;;1.67;;
18013;SDS011;9132;47.946;10.394;2022-11-15T04:20:03;2.23;;;1.63;;
18013;SDS011;9132;47.946;10.394;2022-11-15T04:22:47;2.27;;;1.70;;
18013;SDS011;9132;47.946;10.394;2022-11-15T04:25:32;3.93;;;1.70;;
18013;SDS011;9132;47.946;10.394;2022-11-15T04:27:59;1.80;;;1.70;;
18013;SDS011;9132;47.946;10.394;2022-11-15T04:30:25;2.27;;;2.03;;
18013;SDS011;9132;47.946;10.394;2022-11-15T04:32:52;3.43;;;1.90;;
18013;SDS011;9132;47.946;10.394;2022-11-15T04:35:18;2.70;;;1.70;;
18013;SDS011;9132;47.946;10.394;2022-11-15T04:37:44;2.03;;;1.83;;
18013;SDS011;9132;47.946;10.394;2022-11-15T04:40:11;2.37;;;1.63;;
18013;SDS011;9132;47.946;10.394;2022-11-15T04:42:40;2.50;;;1.57;;
18013;SDS011;9132;47.946;10.394;2022-11-15T04:45:07;2.30;;;2.10;;
18013;SDS011;9132;47.946;10.394;2022-11-15T04:47:34;2.20;;;2.00;;
18013;SDS011;9132;47.946;10.394;2022-11-15T04:50:01;3.53;;;2.30;;
18013;SDS011;9132;47.946;10.394;2022-11-15T04:52:27;3.33;;;2.43;;
18013;SDS011;9132;47.946;10.394;2022-11-15T04:54:53;3.93;;;1.90;;
18013;SDS011;9132;47.946;10.394;2022-11-15T04:57:20;4.87;;;2.70;;
18013;SDS011;9132;47.946;10.394;2022-11-15T04:59:47;2.53;;;2.17;;
18013;SDS011;9132;47.946;10.394;2022-11-15T05:02:14;3.17;;;2.00;;
18013;SDS011;9132;47.946;10.394;2022-11-15T05:04:40;3.23;;;2.20;;
18013;SDS011;9132;47.946;10.394;2022-11-15T05:07:06;2.30;;;2.10;;
18013;SDS011;9132;47.946;10.394;2022-11-15T05:09:32;1.80;;;1.63;;
18013;SDS011;9132;47.946;10.394;2022-11-15T05:11:58;4.37;;;1.80;;
18013;SDS011;9132;47.946;10.394;2022-11-15T05:14:25;3.10;;;2.10;;
18013;SDS011;9132;47.946;10.394;2022-11-15T05:16:52;2.33;;;1.87;;
18013;SDS011;9132;47.946;10.394;2022-11-15T05:19:19;2.50;;;2.00;;
18013;SDS011;9132;47.946;10.394;2022-11-15T05:21:45;2.20;;;1.90;;
18013;SDS011;9132;47.946;10.394;2022-11-15T05:24:12;3.93;;;1.83;;
18013;SDS011;9132;47.946;10.394;2022-11-15T05:26:39;2.27;;;1.73;;
18013;SDS011;9132;47.946;10.394;2022-11-15T05:29:05;2.63;;;2.00;;
18013;SDS011;9132;47.946;10.394;2022-11-15T05:31:32;5.23;;;2.37;;
18013;SDS011;9132;47.946;10.394;2022-11-15T05:34:04;2.43;;;2.00;;
18013;SDS011;9132;47.946;10.394;2022-11-15T05:36:31;4.27;;;1.90;;
18013;SDS011;9132;47.946;10.394;2022-11-15T05:38:59;2.07;;;1.87;;
18013;SDS011;9132;47.946;10.394;2022-11-15T05:41:26;4.17;;;2.23;;
18013;SDS011;9132;47.946;10.394;2022-11-15T05:43:56;2.20;;;2.00;;
18013;SDS011;9132;47.946;10.394;2022-11-15T05:46:23;2.40;;;2.20;;
18013;SDS011;9132;47.946;10.394;2022-11-15T05:48:49;2.80;;;2.23;;
18013;SDS011;9132;47.946;10.394;2022-11-15T05:51:18;5.25;;;2.50;;
18013;SDS011;9132;47.946;10.394;2022-11-15T05:53:45;5.40;;;2.30;;
18013;SDS011;9132;47.946;10.394;2022-11-15T05:56:12;5.43;;;2.43;;
18013;SDS011;9132;47.946;10.394;2022-11-15T05:58:40;4.33;;;1.90;;
18013;SDS011;9132;47.946;10.394;2022-11-15T06:01:07;4.80;;;2.10;;
18013;SDS011;9132;47.946;10.394;2022-11-15T06:03:33;2.50;;;2.00;;
18013;SDS011;9132;47.946;10.394;2022-11-15T06:06:00;3.57;;;2.20;;
18013;SDS011;9132;47.946;10.394;2022-11-15T06:08:28;3.30;;;2.50;;
18013;SDS011;9132;47.946;10.394;2022-11-15T06:10:54;3.23;;;2.53;;
18013;SDS011;9132;47.946;10.394;2022-11-15T06:13:21;3.33;;;2.27;;
18013;SDS011;9132;47.946;10.394;2022-11-15T06:15:47;3.13;;;2.30;;
18013;SDS011;9132;47.946;10.394;2022-11-15T06:18:13;3.57;;;2.63;;
18013;SDS011;9132;47.946;10.394;2022-11-15T06:20:40;2.47;;;2.20;;
18013;SDS011;9132;47.946;10.394;2022-11-15T06:23:06;4.33;;;2.00;;
18013;SDS011;9132;47.946;10.394;2022-11-15T06:25:34;2.85;;;2.47;;
18013;SDS011;9132;47.946;10.394;2022-11-15T06:28:00;2.20;;;2.00;;
18013;SDS011;9132;47.946;10.394;2022-11-15T06:30:27;5.53;;;2.10;;
18013;SDS011;9132;47.946;10.394;2022-11-15T06:32:58;4.07;;;2.43;;
18013;SDS011;9132;47.946;10.394;2022-11-15T06:35:24;3.07;;;2.40;;
18013;SDS011;9132;47.946;10.394;2022-11-15T06:37:51;5.77;;;2.53;;
18013;SDS011;9132;47.946;10.394;2022-11-15T06:40:17;2.57;;;2.00;;
18013;SDS011;9132;47.946;10.394;2022-11-15T06:42:45;3.17;;;2.40;;
18013;SDS011;9132;47.946;10.394;2022-11-15T06:45:11;6.90;;;3.00;;
18013;SDS011;9132;47.946;10.394;2022-11-15T06:47:43;3.50;;;2.40;;
18013;SDS011;9132;47.946;10.394;2022-11-15T06:50:10;3.77;;;2.77;;
18013;SDS011;9132;47.946;10.394;2022-11-15T06:52:36;4.90;;;2.80;;
18013;SDS011;9132;47.946;10.394;2022-11-15T06:55:03;4.30;;;2.20;;
18013;SDS011;9132;47.946;10.394;2022-11-15T06:57:29;2.83;;;2.20;;
18013;SDS011;9132;47.946;10.394;2022-11-15T06:59:57;3.00;;;2.70;;
18013;SDS011;9132;47.946;10.394;2022-11-15T07:02:23;5.53;;;2.47;;
18013;SDS011;9132;47.946;10.394;2022-11-15T07:04:49;2.33;;;2.13;;
18013;SDS011;9132;47.946;10.394;2022-11-15T07:07:16;4.73;;;2.27;;
18013;SDS011;9132;47.946;10.394;2022-11-15T07:09:42;3.33;;;2.27;;
18013;SDS011;9132;47.946;10.394;2022-11-15T07:12:08;3.33;;;2.60;;
18013;SDS011;9132;47.946;10.394;2022-11-15T07:14:35;3.43;;;2.20;;
18013;SDS011;9132;47.946;10.394;2022-11-15T07:17:04;4.20;;;2.50;;
18013;SDS011;9132;47.946;10.394;2022-11-15T07:19:30;3.37;;;2.40;;
18013;SDS011;9132;47.946;10.394;2022-11-15T07:21:57;4.73;;;2.70;;
18013;SDS011;9132;47.946;10.394;2022-11-15T07:24:23;3.80;;;2.50;;
18013;SDS011;9132;47.946;10.394;2022-11-15T07:26:50;3.50;;;2.53;;
18013;SDS011;9132;47.946;10.394;2022-11-15T07:29:16;4.37;;;2.23;;
18013;SDS011;9132;47.946;10.394;2022-11-15T07:31:43;4.03;;;2.60;;
18013;SDS011;9132;47.946;10.394;2022-11-15T07:34:10;2.50;;;2.30;;
18013;SDS011;9132;47.946;10.394;2022-11-15T07:36:37;3.50;;;2.30;;
18013;SDS011;9132;47.946;10.394;2022-11-15T07:39:03;4.23;;;2.57;;
18013;SDS011;9132;47.946;10.394;2022-11-15T07:41:30;3.67;;;2.50;;
18013;SDS011;9132;47.946;10.394;2022-11-15T07:43:56;3.07;;;2.30;;
18013;SDS011;9132;47.946;10.394;2022-11-15T07:46:22;2.70;;;2.50;;
18013;SDS011;9132;47.946;10.394;2022-11-15T07:48:49;2.60;;;2.33;;
18013;SDS011;9132;47.946;10.394;2022-11-15T07:51:17;2.97;;;2.00;;
18013;SDS011;9132;47.946;10.394;2022-11-15T07:53:43;3.07;;;2.23;;
18013;SDS011;9132;47.946;10.394;2022-11-15T07:56:10;2.87;;;2.50;;
18013;SDS011;9132;47.946;10.394;2022-11-15T07:58:36;3.63;;;2.07;;
18013;SDS011;9132;47.946;10.394;2022-11-15T08:01:02;5.53;;;2.43;;
18013;SDS011;9132;47.946;10.394;2022-11-15T08:03:29;2.53;;;2.27;;
18013;SDS011;9132;47.946;10.394;2022-11-15T08:05:56;4.40;;;2.37;;
18013;SDS011;9132;47.946;10.394;2022-11-15T08:08:23;5.30;;;2.70;;
18013;SDS011;9132;47.946;10.394;2022-11-15T08:10:50;3.63;;;2.13;;
18013;SDS011;9132;47.946;10.394;2022-11-15T08:13:16;2.93;;;2.63;;
18013;SDS011;9132;47.946;10.394;2022-11-15T08:15:43;4.73;;;2.90;;
18013;SDS011;9132;47.946;10.394;2022-11-15T08:18:10;6.63;;;2.40;;
18013;SDS011;9132;47.946;10.394;2022-11-15T08:20:37;3.23;;;2.90;;
18013;SDS011;9132;47.946;10.394;2022-11-15T08:23:04;4.23;;;2.63;;
18013;SDS011;9132;47.946;10.394;2022-11-15T08:25:32;2.73;;;2.43;;
18013;SDS011;9132;47.946;10.394;2022-11-15T08:27:59;3.50;;;2.63;;
18013;SDS011;9132;47.946;10.394;2022-11-15T08:30:26;3.10;;;2.57;;
18013;SDS011;9132;47.946;10.394;2022-11-15T08:32:53;3.37;;;2.77;;
18013;SDS011;9132;47.946;10.394;2022-11-15T08:35:20;5.70;;;3.43;;
18013;SDS011;9132;47.946;10.394;2022-11-15T08:37:46;5.57;;;3.77;;
18013;SDS011;9132;47.946;10.394;2022-11-15T08:40:13;7.53;;;5.00;;
18013;SDS011;9132;47.946;10.394;2022-11-15T08:42:41;3.07;;;2.77;;
18013;SDS011;9132;47.946;10.394;2022-11-15T08:45:07;5.23;;;3.37;;
18013;SDS011;9132;47.946;10.394;2022-11-15T08:47:34;4.27;;;3.10;;
18013;SDS011;9132;47.946;10.394;2022-11-15T08:50:00;3.60;;;2.80;;
18013;SDS011;9132;47.946;10.394;2022-11-15T08:52:27;3.20;;;2.57;;
18013;SDS011;9132;47.946;10.394;2022-11-15T08:54:53;2.73;;;2.50;;
18013;SDS011;9132;47.946;10.394;2022-11-15T08:57:19;6.13;;;3.20;;
18013;SDS011;9132;47.946;10.394;2022-11-15T08:59:47;3.73;;;3.00;;
18013;SDS011;9132;47.946;10.394;2022-11-15T09:02:14;4.13;;;2.97;;
18013;SDS011;9132;47.946;10.394;2022-11-15T09:04:40;3.93;;;3.00;;
18013;SDS011;9132;47.946;10.394;2022-11-15T09:07:07;4.33;;;3.17;;
18013;SDS011;9132;47.946;10.394;2022-11-15T09:09:34;5.07;;;2.80;;
18013;SDS011;9132;47.946;10.394;2022-11-15T09:12:00;3.47;;;2.67;;
18013;SDS011;9132;47.946;10.394;2022-11-15T09:14:26;3.93;;;2.70;;
18013;SDS011;9132;47.946;10.394;2022-11-15T09:16:54;3.90;;;2.80;;
18013;SDS011;9132;47.946;10.394;2022-11-15T09:19:21;2.97;;;2.50;;
18013;SDS011;9132;47.946;10.394;2022-11-15T09:21:47;2.93;;;2.57;;
18013;SDS011;9132;47.946;10.394;2022-11-15T09:24:14;4.50;;;2.70;;
18013;SDS011;9132;47.946;10.394;2022-11-15T09:26:40;3.33;;;2.50;;
18013;SDS011;9132;47.946;10.394;2022-11-15T09:29:06;2.80;;;2.50;;
18013;SDS011;9132;47.946;10.394;2022-11-15T09:31:33;4.77;;;2.30;;
18013;SDS011;9132;47.946;10.394;2022-11-15T09:34:01;2.33;;;2.07;;
18013;SDS011;9132;47.946;10.394;2022-11-15T09:36:27;3.70;;;2.50;;
18013;SDS011;9132;47.946;10.394;2022-11-15T09:38:53;4.60;;;2.43;;
18013;SDS011;9132;47.946;10.394;2022-11-15T09:41:26;3.33;;;2.63;;
18013;SDS011;9132;47.946;10.394;2022-11-15T09:43:58;4.87;;;2.47;;
18013;SDS011;9132;47.946;10.394;2022-11-15T09:46:31;2.20;;;2.00;;
18013;SDS011;9132;47.946;10.394;2022-11-15T09:49:01;3.07;;;2.17;;
18013;SDS011;9132;47.946;10.394;2022-11-15T09:51:28;1.93;;;1.70;;
18013;SDS011;9132;47.946;10.394;2022-11-15T09:54:01;2.30;;;2.10;;
18013;SDS011;9132;47.946;10.394;2022-11-15T09:56:29;4.27;;;2.27;;
18013;SDS011;9132;47.946;10.394;2022-11-15T09:58:59;4.13;;;1.87;;
18013;SDS011;9132;47.946;10.394;2022-11-15T10:01:31;3.67;;;1.80;;
18013;SDS011;9132;47.946;10.394;2022-11-15T10:04:01;2.23;;;1.70;;
18013;SDS011;9132;47.946;10.394;2022-11-15T10:06:27;2.00;;;1.03;;
18013;SDS011;9132;47.946;10.394;2022-11-15T10:08:56;1.40;;;1.30;;
18013;SDS011;9132;47.946;10.394;2022-11-15T10:11:24;1.20;;;1.10;;
18013;SDS011;9132;47.946;10.394;2022-11-15T10:13:52;1.47;;;1.37;;
18013;SDS011;9132;47.946;10.394;2022-11-15T10:19:09;2.70;;;1.90;;
18013;SDS011;9132;47.946;10.394;2022-11-15T10:21:40;2.93;;;2.17;;
18013;SDS011;9132;47.946;10.394;2022-11-15T10:24:10;2.50;;;1.90;;
18013;SDS011;9132;47.946;10.394;2022-11-15T10:26:36;2.67;;;1.37;;
18013;SDS011;9132;47.946;10.394;2022-11-15T10:29:03;2.13;;;1.50;;
18013;SDS011;9132;47.946;10.394;2022-11-15T10:31:29;2.57;;;1.57;;
18013;SDS011;9132;47.946;10.394;2022-11-15T10:33:58;2.03;;;1.27;;
18013;SDS011;9132;47.946;10.394;2022-11-15T10:36:31;1.57;;;1.40;;
18013;SDS011;9132;47.946;10.394;2022-11-15T10:38:58;2.70;;;1.40;;
18013;SDS011;9132;47.946;10.394;2022-11-15T10:41:31;1.77;;;1.13;;
18013;SDS011;9132;47.946;10.394;2022-11-15T10:46:44;2.23;;;1.43;;
18013;SDS011;9132;47.946;10.394;2022-11-15T10:49:12;3.37;;;1.47;;
18013;SDS011;9132;47.946;10.394;2022-11-15T10:51:43;2.47;;;1.50;;
18013;SDS011;9132;47.946;10.394;2022-11-15T10:54:10;2.30;;;1.40;;
18013;SDS011;9132;47.946;10.394;2022-11-15T10:56:38;5.60;;;1.90;;
18013;SDS011;9132;47.946;10.394;2022-11-15T10:59:05;1.57;;;1.40;;
18013;SDS011;9132;47.946;10.394;2022-11-15T11:01:35;3.30;;;1.70;;
18013;SDS011;9132;47.946;10.394;2022-11-15T11:04:11;2.33;;;1.57;;
18013;SDS011;9132;47.946;10.394;2022-11-15T11:06:47;2.03;;;1.60;;
18013;SDS011;9132;47.946;10.394;2022-11-15T11:09:22;2.97;;;1.70;;
18013;SDS011;9132;47.946;10.394;2022-11-15T11:11:51;2.37;;;1.70;;
18013;SDS011;9132;47.946;10.394;2022-11-15T11:14:20;3.27;;;1.80;;
18013;SDS011;9132;47.946;10.394;2022-11-15T11:16:48;2.77;;;1.73;;
18013;SDS011;9132;47.946;10.394;2022-11-15T11:22:09;2.30;;;2.00;;
18013;SDS011;9132;47.946;10.394;2022-11-15T11:24:41;5.57;;;2.10;;
18013;SDS011;9132;47.946;10.394;2022-11-15T11:27:22;4.17;;;2.20;;
18013;SDS011;9132;47.946;10.394;2022-11-15T11:29:56;2.73;;;2.00;;
18013;SDS011;9132;47.946;10.394;2022-11-15T11:32:30;3.07;;;2.10;;
18013;SDS011;9132;47.946;10.394;2022-11-15T11:35:03;3.53;;;2.10;;
18013;SDS011;9132;47.946;10.394;2022-11-15T11:37:35;3.70;;;1.93;;
18013;SDS011;9132;47.946;10.394;2022-11-15T11:40:07;2.13;;;1.93;;
18013;SDS011;9132;47.946;10.394;2022-11-15T11:42:39;2.57;;;2.10;;
18013;SDS011;9132;47.946;10.394;2022-11-15T11:45:11;4.10;;;2.00;;
18013;SDS011;9132;47.946;10.394;2022-11-15T11:47:43;4.03;;;2.30;;
18013;SDS011;9132;47.946;10.394;2022-11-15T11:50:13;2.33;;;1.90;;
18013;SDS011;9132;47.946;10.394;2022-11-15T11:52:43;3.37;;;1.97;;
18013;SDS011;9132;47.946;10.394;2022-11-15T11:55:12;3.03;;;1.90;;
18013;SDS011;9132;47.946;10.394;2022-11-15T11:57:41;3.97;;;2.30;;
18013;SDS011;9132;47.946;10.394;2022-11-15T12:00:14;3.70;;;2.20;;
18013;SDS011;9132;47.946;10.394;2022-11-15T12:02:42;3.60;;;2.43;;
18013;SDS011;9132;47.946;10.394;2022-11-15T12:05:10;2.47;;;2.10;;
18013;SDS011;9132;47.946;10.394;2022-11-15T12:07:38;2.77;;;2.13;;
18013;SDS011;9132;47.946;10.394;2022-11-15T12:10:11;2.83;;;2.00;;
18013;SDS011;9132;47.946;10.394;2022-11-15T12:12:41;2.83;;;2.37;;
18013;SDS011;9132;47.946;10.394;2022-11-15T12:15:11;4.60;;;2.53;;
18013;SDS011;9132;47.946;10.394;2022-11-15T12:17:39;4.13;;;2.50;;
18013;SDS011;9132;47.946;10.394;2022-11-15T12:20:13;3.00;;;2.80;;
18013;SDS011;9132;47.946;10.394;2022-11-15T12:22:41;4.07;;;2.43;;
18013;SDS011;9132;47.946;10.394;2022-11-15T12:25:16;4.27;;;2.50;;
18013;SDS011;9132;47.946;10.394;2022-11-15T12:27:44;4.20;;;2.73;;
18013;SDS011;9132;47.946;10.394;2022-11-15T12:30:13;4.20;;;2.80;;
18013;SDS011;9132;47.946;10.394;2022-11-15T12:32:48;4.83;;;2.80;;
18013;SDS011;9132;47.946;10.394;2022-11-15T12:35:20;3.50;;;2.70;;
18013;SDS011;9132;47.946;10.394;2022-11-15T12:37:48;2.60;;;2.40;;
18013;SDS011;9132;47.946;10.394;2022-11-15T12:40:27;3.30;;;2.80;;
18013;SDS011;9132;47.946;10.394;2022-11-15T12:42:56;4.43;;;2.57;;
18013;SDS011;9132;47.946;10.394;2022-11-15T12:45:24;4.00;;;3.03;;
18013;SDS011;9132;47.946;10.394;2022-11-15T12:47:51;7.10;;;3.30;;
18013;SDS011;9132;47.946;10.394;2022-11-15T12:50:21;3.97;;;2.83;;
18013;SDS011;9132;47.946;10.394;2022-11-15T12:58:40;2.93;;;2.63;;
18013;SDS011;9132;47.946;10.394;2022-11-15T13:01:07;2.80;;;2.60;;
18013;SDS011;9132;47.946;10.394;2022-11-15T13:03:33;2.67;;;2.40;;
18013;SDS011;9132;47.946;10.394;2022-11-15T13:06:07;5.50;;;2.90;;
18013;SDS011;9132;47.946;10.394;2022-11-15T13:08:41;4.33;;;3.00;;
18013;SDS011;9132;47.946;10.394;2022-11-15T13:14:19;3.73;;;2.63;;
18013;SDS011;9132;47.946;10.394;2022-11-15T13:17:01;3.70;;;3.00;;
18013;SDS011;9132;47.946;10.394;2022-11-15T13:19:27;4.03;;;2.90;;
18013;SDS011;9132;47.946;10.394;2022-11-15T13:21:54;3.57;;;2.83;;
18013;SDS011;9132;47.946;10.394;2022-11-15T13:24:38;2.60;;;2.40;;
18013;SDS011;9132;47.946;10.394;2022-11-15T13:27:09;3.63;;;3.00;;
18013;SDS011;9132;47.946;10.394;2022-11-15T13:29:38;4.43;;;2.93;;
18013;SDS011;9132;47.946;10.394;2022-11-15T13:32:10;3.60;;;3.30;;
18013;SDS011;9132;47.946;10.394;2022-11-15T13:34:38;4.53;;;3.10;;
18013;SDS011;9132;47.946;10.394;2022-11-15T13:37:08;3.27;;;2.97;;
18013;SDS011;9132;47.946;10.394;2022-11-15T13:39:35;3.33;;;2.73;;
18013;SDS011;9132;47.946;10.394;2022-11-15T13:42:03;3.97;;;3.17;;
18013;SDS011;9132;47.946;10.394;2022-11-15T13:44:30;3.70;;;2.97;;
18013;SDS011;9132;47.946;10.394;2022-11-15T13:47:02;6.17;;;3.00;;
18013;SDS011;9132;47.946;10.394;2022-11-15T13:49:29;6.60;;;3.57;;
18013;SDS011;9132;47.946;10.394;2022-11-15T13:51:56;3.77;;;3.47;;
18013;SDS011;9132;47.946;10.394;2022-11-15T13:54:23;5.90;;;3.17;;
18013;SDS011;9132;47.946;10.394;2022-11-15T13:56:51;6.20;;;3.57;;
18013;SDS011;9132;47.946;10.394;2022-11-15T13:59:22;4.20;;;3.33;;
18013;SDS011;9132;47.946;10.394;2022-11-15T14:01:50;3.80;;;3.33;;
18013;SDS011;9132;47.946;10.394;2022-11-15T14:04:20;4.03;;;3.33;;
18013;SDS011;9132;47.946;10.394;2022-11-15T14:06:47;4.83;;;3.23;;
18013;SDS011;9132;47.946;10.394;2022-11-15T14:09:24;4.70;;;3.50;;
18013;SDS011;9132;47.946;10.394;2022-11-15T14:11:54;4.33;;;3.40;;
18013;SDS011;9132;47.946;10.394;2022-11-15T14:14:21;4.47;;;3.50;;
18013;SDS011;9132;47.946;10.394;2022-11-15T14:16:48;4.20;;;3.10;;
18013;SDS011;9132;47.946;10.394;2022-11-15T14:24:44;3.87;;;3.33;;
18013;SDS011;9132;47.946;10.394;2022-11-15T14:27:21;4.77;;;3.30;;
18013;SDS011;9132;47.946;10.394;2022-11-15T14:29:48;3.40;;;3.10;;
18013;SDS011;9132;47.946;10.394;2022-11-15T14:32:15;3.93;;;3.53;;
18013;SDS011;9132;47.946;10.394;2022-11-15T14:34:41;3.23;;;2.93;;
18013;SDS011;9132;47.946;10.394;2022-11-15T14:37:10;4.10;;;3.50;;
18013;SDS011;9132;47.946;10.394;2022-11-15T14:39:44;3.93;;;3.40;;
18013;SDS011;9132;47.946;10.394;2022-11-15T14:42:10;4.93;;;3.33;;
18013;SDS011;9132;47.946;10.394;2022-11-15T14:44:36;6.37;;;3.40;;
18013;SDS011;9132;47.946;10.394;2022-11-15T14:47:03;5.50;;;4.27;;
18013;SDS011;9132;47.946;10.394;2022-11-15T14:49:29;5.40;;;3.93;;
18013;SDS011;9132;47.946;10.394;2022-11-15T14:51:55;6.43;;;5.63;;
18013;SDS011;9132;47.946;10.394;2022-11-15T14:54:22;5.67;;;3.60;;
18013;SDS011;9132;47.946;10.394;2022-11-15T14:56:49;4.33;;;3.93;;
18013;SDS011;9132;47.946;10.394;2022-11-15T14:59:16;4.90;;;3.60;;
18013;SDS011;9132;47.946;10.394;2022-11-15T15:01:42;4.30;;;3.90;;
18013;SDS011;9132;47.946;10.394;2022-11-15T15:04:09;4.10;;;3.70;;
18013;SDS011;9132;47.946;10.394;2022-11-15T15:06:36;3.57;;;3.27;;
18013;SDS011;9132;47.946;10.394;2022-11-15T15:09:03;4.10;;;3.70;;
18013;SDS011;9132;47.946;10.394;2022-11-15T15:11:30;3.97;;;3.30;;
18013;SDS011;9132;47.946;10.394;2022-11-15T15:13:58;6.57;;;3.67;;
18013;SDS011;9132;47.946;10.394;2022-11-15T15:16:26;5.13;;;3.43;;
18013;SDS011;9132;47.946;10.394;2022-11-15T15:18:52;5.03;;;3.97;;
18013;SDS011;9132;47.946;10.394;2022-11-15T15:21:20;11.57;;;3.73;;
18013;SDS011;9132;47.946;10.394;2022-11-15T15:23:47;11.47;;;4.20;;
18013;SDS011;9132;47.946;10.394;2022-11-15T15:26:13;14.03;;;6.93;;
18013;SDS011;9132;47.946;10.394;2022-11-15T15:28:39;22.07;;;14.23;;